sensor_id;sensor_type;location;lat;lon;timestamp;temperature;humidity
9410;DHT22;4744;52.576;13.568;2023-07-31T00:00:38;15.80;1.00
9410;DHT22;4744;52.576;13.568;2023-07-31T00:03:05;15.80;1.00
9410;DHT22;4744;52.576;13.568;2023-07-31T00:05:32;15.70;1.00
9410;DHT22;4744;52.576;13.568;2023-07-31T00:07:59;15.70;1.00
9410;DHT22;4744;52.576;13.568;2023-07-31T00:10:27;15.70;1.00
9410;DHT22;4744;52.576;13.568;2023-07-31T00:12:54;15.70;1.00
9410;DHT22;4744;52.576;13.568;2023-07-31T00:15:21;15.70;1.00
9410;DHT22;4744;52.576;13.568;2023-07-31T00:17:48;15.60;1.00
9410;DHT22;4744;52.576;13.568;2023-07-31T00:20:15;15.60;1.00
9410;DHT22;4744;52.576;13.568;2023-07-31T00:22:42;15.60;1.00
9410;DHT22;4744;52.576;13.568;2023-07-31T00:25:09;15.60;1.00
9410;DHT22;4744;52.576;13.568;2023-07-31T00:27:38;15.60;1.00
9410;DHT22;4744;52.576;13.568;2023-07-31T00:30:06;15.50;1.00
9410;DHT22;4744;52.576;13.568;2023-07-31T00:32:33;15.50;1.00
9410;DHT22;4744;52.576;13.568;2023-07-31T00:35:00;15.50;1.00
9410;DHT22;4744;52.576;13.568;2023-07-31T00:37:27;15.40;1.00
9410;DHT22;4744;52.576;13.568;2023-07-31T00:39:54;15.40;1.00
9410;DHT22;4744;52.576;13.568;2023-07-31T00:42:21;15.40;1.00
9410;DHT22;4744;52.576;13.568;2023-07-31T00:44:49;15.40;1.00
9410;DHT22;4744;52.576;13.568;2023-07-31T00:47:16;15.40;1.00
9410;DHT22;4744;52.576;13.568;2023-07-31T00:49:44;15.40;1.00
9410;DHT22;4744;52.576;13.568;2023-07-31T00:52:11;15.40;1.00
9410;DHT22;4744;52.576;13.568;2023-07-31T00:54:39;15.40;1.00
9410;DHT22;4744;52.576;13.568;2023-07-31T00:57:06;15.40;1.00
9410;DHT22;4744;52.576;13.568;2023-07-31T00:59:34;15.40;1.00
9410;DHT22;4744;52.576;13.568;2023-07-31T01:02:03;15.40;1.00
9410;DHT22;4744;52.576;13.568;2023-07-31T01:04:30;15.40;1.00
9410;DHT22;4744;52.576;13.568;2023-07-31T01:07:03;15.50;1.00
9410;DHT22;4744;52.576;13.568;2023-07-31T01:09:36;15.50;1.00
9410;DHT22;4744;52.576;13.568;2023-07-31T01:12:07;15.50;1.00
9410;DHT22;4744;52.576;13.568;2023-07-31T01:14:36;15.50;1.00
9410;DHT22;4744;52.576;13.568;2023-07-31T01:17:04;15.50;1.00
9410;DHT22;4744;52.576;13.568;2023-07-31T01:19:31;15.40;1.00
9410;DHT22;4744;52.576;13.568;2023-07-31T01:22:16;15.50;1.00
9410;DHT22;4744;52.576;13.568;2023-07-31T01:24:55;15.50;1.00
9410;DHT22;4744;52.576;13.568;2023-07-31T01:27:30;15.50;1.00
9410;DHT22;4744;52.576;13.568;2023-07-31T01:30:07;15.50;1.00
9410;DHT22;4744;52.576;13.568;2023-07-31T01:32:38;15.50;1.00
9410;DHT22;4744;52.576;13.568;2023-07-31T01:35:06;15.50;1.00
9410;DHT22;4744;52.576;13.568;2023-07-31T01:37:34;15.50;1.00
9410;DHT22;4744;52.576;13.568;2023-07-31T01:40:01;15.50;1.00
9410;DHT22;4744;52.576;13.568;2023-07-31T01:42:30;15.50;1.00
9410;DHT22;4744;52.576;13.568;2023-07-31T01:44:57;15.60;1.00
9410;DHT22;4744;52.576;13.568;2023-07-31T01:47:23;15.60;1.00
9410;DHT22;4744;52.576;13.568;2023-07-31T01:49:51;15.60;1.00
9410;DHT22;4744;52.576;13.568;2023-07-31T01:52:18;15.60;1.00
9410;DHT22;4744;52.576;13.568;2023-07-31T01:54:45;15.50;1.00
9410;DHT22;4744;52.576;13.568;2023-07-31T01:57:12;15.50;1.00
9410;DHT22;4744;52.576;13.568;2023-07-31T01:59:40;15.50;1.00
9410;DHT22;4744;52.576;13.568;2023-07-31T02:02:07;15.40;1.00
9410;DHT22;4744;52.576;13.568;2023-07-31T02:04:34;15.40;1.00
9410;DHT22;4744;52.576;13.568;2023-07-31T02:07:01;15.40;1.00
9410;DHT22;4744;52.576;13.568;2023-07-31T02:09:28;15.40;1.00
9410;DHT22;4744;52.576;13.568;2023-07-31T02:11:55;15.40;1.00
9410;DHT22;4744;52.576;13.568;2023-07-31T02:14:22;15.40;1.00
9410;DHT22;4744;52.576;13.568;2023-07-31T02:16:51;15.40;1.00
9410;DHT22;4744;52.576;13.568;2023-07-31T02:19:18;15.40;1.00
9410;DHT22;4744;52.576;13.568;2023-07-31T02:21:45;15.40;1.00
9410;DHT22;4744;52.576;13.568;2023-07-31T02:24:12;15.40;1.00
9410;DHT22;4744;52.576;13.568;2023-07-31T02:26:39;15.50;1.00
9410;DHT22;4744;52.576;13.568;2023-07-31T02:29:07;15.50;1.00
9410;DHT22;4744;52.576;13.568;2023-07-31T02:31:35;15.50;1.00
9410;DHT22;4744;52.576;13.568;2023-07-31T02:34:03;15.50;1.00
9410;DHT22;4744;52.576;13.568;2023-07-31T02:36:30;15.50;1.00
9410;DHT22;4744;52.576;13.568;2023-07-31T02:38:57;15.40;1.00
9410;DHT22;4744;52.576;13.568;2023-07-31T02:41:24;15.50;1.00
9410;DHT22;4744;52.576;13.568;2023-07-31T02:43:51;15.50;1.00
9410;DHT22;4744;52.576;13.568;2023-07-31T02:46:19;15.50;1.00
9410;DHT22;4744;52.576;13.568;2023-07-31T02:48:46;15.50;1.00
9410;DHT22;4744;52.576;13.568;2023-07-31T02:51:14;15.50;1.00
9410;DHT22;4744;52.576;13.568;2023-07-31T02:53:41;15.50;1.00
9410;DHT22;4744;52.576;13.568;2023-07-31T02:56:08;15.50;1.00
9410;DHT22;4744;52.576;13.568;2023-07-31T02:58:35;15.50;1.00
9410;DHT22;4744;52.576;13.568;2023-07-31T03:01:02;15.50;1.00
9410;DHT22;4744;52.576;13.568;2023-07-31T03:03:29;15.50;1.00
9410;DHT22;4744;52.576;13.568;2023-07-31T03:05:56;15.50;1.00
9410;DHT22;4744;52.576;13.568;2023-07-31T03:08:25;15.50;1.00
9410;DHT22;4744;52.576;13.568;2023-07-31T03:10:51;15.50;1.00
9410;DHT22;4744;52.576;13.568;2023-07-31T03:13:18;15.50;1.00
9410;DHT22;4744;52.576;13.568;2023-07-31T03:15:45;15.50;1.00
9410;DHT22;4744;52.576;13.568;2023-07-31T03:18:12;15.50;1.00
9410;DHT22;4744;52.576;13.568;2023-07-31T03:20:42;15.50;1.00
9410;DHT22;4744;52.576;13.568;2023-07-31T03:23:09;15.50;1.00
9410;DHT22;4744;52.576;13.568;2023-07-31T03:25:38;15.60;1.00
9410;DHT22;4744;52.576;13.568;2023-07-31T03:28:05;15.50;1.00
9410;DHT22;4744;52.576;13.568;2023-07-31T03:30:32;15.60;1.00
9410;DHT22;4744;52.576;13.568;2023-07-31T03:33:02;15.50;1.00
9410;DHT22;4744;52.576;13.568;2023-07-31T03:35:29;15.60;1.00
9410;DHT22;4744;52.576;13.568;2023-07-31T03:37:56;15.60;1.00
9410;DHT22;4744;52.576;13.568;2023-07-31T03:40:23;15.50;1.00
9410;DHT22;4744;52.576;13.568;2023-07-31T03:42:52;15.50;1.00
9410;DHT22;4744;52.576;13.568;2023-07-31T03:45:19;15.50;1.00
9410;DHT22;4744;52.576;13.568;2023-07-31T03:47:46;15.50;1.00
9410;DHT22;4744;52.576;13.568;2023-07-31T03:50:13;15.50;1.00
9410;DHT22;4744;52.576;13.568;2023-07-31T03:52:41;15.50;1.00
9410;DHT22;4744;52.576;13.568;2023-07-31T03:55:08;15.50;1.00
9410;DHT22;4744;52.576;13.568;2023-07-31T03:57:35;15.50;1.00
9410;DHT22;4744;52.576;13.568;2023-07-31T04:00:04;15.50;1.00
9410;DHT22;4744;52.576;13.568;2023-07-31T04:02:32;15.40;1.00
9410;DHT22;4744;52.576;13.568;2023-07-31T04:04:59;15.40;1.00
9410;DHT22;4744;52.576;13.568;2023-07-31T04:07:26;15.40;1.00
9410;DHT22;4744;52.576;13.568;2023-07-31T04:09:53;15.40;1.00
9410;DHT22;4744;52.576;13.568;2023-07-31T04:12:20;15.40;1.00
9410;DHT22;4744;52.576;13.568;2023-07-31T04:14:47;15.40;1.00
9410;DHT22;4744;52.576;13.568;2023-07-31T04:17:15;15.40;1.00
9410;DHT22;4744;52.576;13.568;2023-07-31T04:19:44;15.40;1.00
9410;DHT22;4744;52.576;13.568;2023-07-31T04:22:11;15.40;1.00
9410;DHT22;4744;52.576;13.568;2023-07-31T04:24:38;15.40;1.00
9410;DHT22;4744;52.576;13.568;2023-07-31T04:27:05;15.50;1.00
9410;DHT22;4744;52.576;13.568;2023-07-31T04:29:32;15.50;1.00
9410;DHT22;4744;52.576;13.568;2023-07-31T04:31:59;15.50;1.00
9410;DHT22;4744;52.576;13.568;2023-07-31T04:34:28;15.50;1.00
9410;DHT22;4744;52.576;13.568;2023-07-31T04:36:54;15.50;1.00
9410;DHT22;4744;52.576;13.568;2023-07-31T04:39:21;15.50;1.00
9410;DHT22;4744;52.576;13.568;2023-07-31T04:41:48;15.50;1.00
9410;DHT22;4744;52.576;13.568;2023-07-31T04:44:15;15.60;1.00
9410;DHT22;4744;52.576;13.568;2023-07-31T04:46:42;15.60;1.00
9410;DHT22;4744;52.576;13.568;2023-07-31T04:49:10;15.60;1.00
9410;DHT22;4744;52.576;13.568;2023-07-31T04:51:38;15.60;1.00
9410;DHT22;4744;52.576;13.568;2023-07-31T04:54:05;15.60;1.00
9410;DHT22;4744;52.576;13.568;2023-07-31T04:56:32;15.60;1.00
9410;DHT22;4744;52.576;13.568;2023-07-31T04:58:59;15.60;1.00
9410;DHT22;4744;52.576;13.568;2023-07-31T05:01:26;15.60;1.00
9410;DHT22;4744;52.576;13.568;2023-07-31T05:03:53;15.60;1.00
9410;DHT22;4744;52.576;13.568;2023-07-31T05:06:20;15.70;1.00
9410;DHT22;4744;52.576;13.568;2023-07-31T05:08:49;15.60;1.00
9410;DHT22;4744;52.576;13.568;2023-07-31T05:11:16;15.70;1.00
9410;DHT22;4744;52.576;13.568;2023-07-31T05:13:42;15.70;1.00
9410;DHT22;4744;52.576;13.568;2023-07-31T05:16:09;15.70;1.00
9410;DHT22;4744;52.576;13.568;2023-07-31T05:18:36;15.70;1.00
9410;DHT22;4744;52.576;13.568;2023-07-31T05:21:03;15.70;1.00
9410;DHT22;4744;52.576;13.568;2023-07-31T05:23:30;15.70;1.00
9410;DHT22;4744;52.576;13.568;2023-07-31T05:26:04;15.70;1.00
9410;DHT22;4744;52.576;13.568;2023-07-31T05:28:31;15.80;1.00
9410;DHT22;4744;52.576;13.568;2023-07-31T05:30:59;15.80;1.00
9410;DHT22;4744;52.576;13.568;2023-07-31T05:33:26;15.80;1.00
9410;DHT22;4744;52.576;13.568;2023-07-31T05:35:53;15.90;1.00
9410;DHT22;4744;52.576;13.568;2023-07-31T05:38:20;15.90;1.00
9410;DHT22;4744;52.576;13.568;2023-07-31T05:40:47;15.90;1.00
9410;DHT22;4744;52.576;13.568;2023-07-31T05:43:15;15.90;1.00
9410;DHT22;4744;52.576;13.568;2023-07-31T05:45:43;15.90;1.00
9410;DHT22;4744;52.576;13.568;2023-07-31T05:48:10;16.00;1.00
9410;DHT22;4744;52.576;13.568;2023-07-31T05:50:36;16.00;1.00
9410;DHT22;4744;52.576;13.568;2023-07-31T05:53:04;16.10;1.00
9410;DHT22;4744;52.576;13.568;2023-07-31T05:55:31;16.10;1.00
9410;DHT22;4744;52.576;13.568;2023-07-31T05:57:58;16.10;1.00
9410;DHT22;4744;52.576;13.568;2023-07-31T06:00:27;16.10;1.00
9410;DHT22;4744;52.576;13.568;2023-07-31T06:02:54;16.10;1.00
9410;DHT22;4744;52.576;13.568;2023-07-31T06:05:21;16.10;1.00
9410;DHT22;4744;52.576;13.568;2023-07-31T06:07:48;16.10;1.00
9410;DHT22;4744;52.576;13.568;2023-07-31T06:10:15;16.10;1.00
9410;DHT22;4744;52.576;13.568;2023-07-31T06:12:42;16.10;1.00
9410;DHT22;4744;52.576;13.568;2023-07-31T06:15:09;16.10;1.00
9410;DHT22;4744;52.576;13.568;2023-07-31T06:17:38;16.10;1.00
9410;DHT22;4744;52.576;13.568;2023-07-31T06:20:07;16.10;1.00
9410;DHT22;4744;52.576;13.568;2023-07-31T06:22:34;16.10;1.00
9410;DHT22;4744;52.576;13.568;2023-07-31T06:25:01;16.10;1.00
9410;DHT22;4744;52.576;13.568;2023-07-31T06:27:27;16.10;1.00
9410;DHT22;4744;52.576;13.568;2023-07-31T06:29:54;16.10;1.00
9410;DHT22;4744;52.576;13.568;2023-07-31T06:32:21;16.20;1.00
9410;DHT22;4744;52.576;13.568;2023-07-31T06:34:50;16.20;1.00
9410;DHT22;4744;52.576;13.568;2023-07-31T06:37:16;16.30;1.00
9410;DHT22;4744;52.576;13.568;2023-07-31T06:39:43;16.30;1.00
9410;DHT22;4744;52.576;13.568;2023-07-31T06:42:10;16.30;1.00
9410;DHT22;4744;52.576;13.568;2023-07-31T06:44:37;16.30;1.00
9410;DHT22;4744;52.576;13.568;2023-07-31T06:47:05;16.30;1.00
9410;DHT22;4744;52.576;13.568;2023-07-31T06:49:34;16.40;1.00
9410;DHT22;4744;52.576;13.568;2023-07-31T06:52:03;16.40;1.00
9410;DHT22;4744;52.576;13.568;2023-07-31T06:54:30;16.40;1.00
9410;DHT22;4744;52.576;13.568;2023-07-31T06:56:57;16.40;1.00
9410;DHT22;4744;52.576;13.568;2023-07-31T06:59:24;16.40;1.00
9410;DHT22;4744;52.576;13.568;2023-07-31T07:01:51;16.40;1.00
9410;DHT22;4744;52.576;13.568;2023-07-31T07:04:18;16.40;1.00
9410;DHT22;4744;52.576;13.568;2023-07-31T07:06:45;16.40;1.00
9410;DHT22;4744;52.576;13.568;2023-07-31T07:09:13;16.40;1.00
9410;DHT22;4744;52.576;13.568;2023-07-31T07:11:40;16.50;1.00
9410;DHT22;4744;52.576;13.568;2023-07-31T07:14:07;16.50;1.00
9410;DHT22;4744;52.576;13.568;2023-07-31T07:16:33;16.50;1.00
9410;DHT22;4744;52.576;13.568;2023-07-31T07:19:00;16.50;1.00
9410;DHT22;4744;52.576;13.568;2023-07-31T07:21:28;16.50;1.00
9410;DHT22;4744;52.576;13.568;2023-07-31T07:23:55;16.50;1.00
9410;DHT22;4744;52.576;13.568;2023-07-31T07:26:23;16.50;1.00
9410;DHT22;4744;52.576;13.568;2023-07-31T07:28:50;16.50;1.00
9410;DHT22;4744;52.576;13.568;2023-07-31T07:31:17;16.50;1.00
9410;DHT22;4744;52.576;13.568;2023-07-31T07:33:44;16.50;1.00
9410;DHT22;4744;52.576;13.568;2023-07-31T07:36:11;16.50;1.00
9410;DHT22;4744;52.576;13.568;2023-07-31T07:38:39;16.50;1.00
9410;DHT22;4744;52.576;13.568;2023-07-31T07:41:07;16.50;1.00
9410;DHT22;4744;52.576;13.568;2023-07-31T07:43:35;16.60;1.00
9410;DHT22;4744;52.576;13.568;2023-07-31T07:46:02;16.60;1.00
9410;DHT22;4744;52.576;13.568;2023-07-31T07:48:29;16.70;1.00
9410;DHT22;4744;52.576;13.568;2023-07-31T07:50:56;16.80;1.00
9410;DHT22;4744;52.576;13.568;2023-07-31T07:53:23;16.90;1.00
9410;DHT22;4744;52.576;13.568;2023-07-31T07:55:50;17.00;1.00
9410;DHT22;4744;52.576;13.568;2023-07-31T07:58:17;17.00;1.00
9410;DHT22;4744;52.576;13.568;2023-07-31T08:00:50;17.10;1.00
9410;DHT22;4744;52.576;13.568;2023-07-31T08:03:17;17.20;1.00
9410;DHT22;4744;52.576;13.568;2023-07-31T08:05:44;17.20;1.00
9410;DHT22;4744;52.576;13.568;2023-07-31T08:08:14;17.20;1.00
9410;DHT22;4744;52.576;13.568;2023-07-31T08:10:44;17.10;1.00
9410;DHT22;4744;52.576;13.568;2023-07-31T08:13:12;17.10;1.00
9410;DHT22;4744;52.576;13.568;2023-07-31T08:15:41;17.10;1.00
9410;DHT22;4744;52.576;13.568;2023-07-31T08:18:10;17.10;1.00
9410;DHT22;4744;52.576;13.568;2023-07-31T08:20:37;17.20;1.00
9410;DHT22;4744;52.576;13.568;2023-07-31T08:23:04;17.20;1.00
9410;DHT22;4744;52.576;13.568;2023-07-31T08:25:34;17.30;1.00
9410;DHT22;4744;52.576;13.568;2023-07-31T08:28:01;17.30;1.00
9410;DHT22;4744;52.576;13.568;2023-07-31T08:30:29;17.30;1.00
9410;DHT22;4744;52.576;13.568;2023-07-31T08:32:56;17.40;1.00
9410;DHT22;4744;52.576;13.568;2023-07-31T08:35:24;17.50;1.00
9410;DHT22;4744;52.576;13.568;2023-07-31T08:37:53;17.60;1.00
9410;DHT22;4744;52.576;13.568;2023-07-31T08:40:20;17.50;1.00
9410;DHT22;4744;52.576;13.568;2023-07-31T08:42:49;17.40;1.00
9410;DHT22;4744;52.576;13.568;2023-07-31T08:45:18;17.30;1.00
9410;DHT22;4744;52.576;13.568;2023-07-31T08:47:46;17.20;1.00
9410;DHT22;4744;52.576;13.568;2023-07-31T08:50:15;17.10;1.00
9410;DHT22;4744;52.576;13.568;2023-07-31T08:52:46;17.00;1.00
9410;DHT22;4744;52.576;13.568;2023-07-31T08:55:14;17.00;1.00
9410;DHT22;4744;52.576;13.568;2023-07-31T08:57:42;17.10;1.00
9410;DHT22;4744;52.576;13.568;2023-07-31T09:00:11;17.10;1.00
9410;DHT22;4744;52.576;13.568;2023-07-31T09:02:42;17.10;1.00
9410;DHT22;4744;52.576;13.568;2023-07-31T09:05:12;17.10;1.00
9410;DHT22;4744;52.576;13.568;2023-07-31T09:07:39;17.10;1.00
9410;DHT22;4744;52.576;13.568;2023-07-31T09:10:09;17.20;1.00
9410;DHT22;4744;52.576;13.568;2023-07-31T09:12:36;17.30;1.00
9410;DHT22;4744;52.576;13.568;2023-07-31T09:15:05;17.40;1.00
9410;DHT22;4744;52.576;13.568;2023-07-31T09:17:34;17.40;1.00
9410;DHT22;4744;52.576;13.568;2023-07-31T09:20:14;17.50;1.00
9410;DHT22;4744;52.576;13.568;2023-07-31T09:22:42;17.60;1.00
9410;DHT22;4744;52.576;13.568;2023-07-31T09:25:18;17.80;1.00
9410;DHT22;4744;52.576;13.568;2023-07-31T09:27:53;17.90;1.00
9410;DHT22;4744;52.576;13.568;2023-07-31T09:30:21;18.00;1.00
9410;DHT22;4744;52.576;13.568;2023-07-31T09:32:49;18.00;1.00
9410;DHT22;4744;52.576;13.568;2023-07-31T09:35:20;18.00;1.00
9410;DHT22;4744;52.576;13.568;2023-07-31T09:37:51;18.00;1.00
9410;DHT22;4744;52.576;13.568;2023-07-31T09:40:33;18.00;1.00
9410;DHT22;4744;52.576;13.568;2023-07-31T09:43:01;18.00;1.00
9410;DHT22;4744;52.576;13.568;2023-07-31T09:45:29;17.90;1.00
9410;DHT22;4744;52.576;13.568;2023-07-31T09:47:56;17.70;1.00
9410;DHT22;4744;52.576;13.568;2023-07-31T09:50:24;17.60;1.00
9410;DHT22;4744;52.576;13.568;2023-07-31T09:52:52;17.50;1.00
9410;DHT22;4744;52.576;13.568;2023-07-31T09:55:19;17.40;1.00
9410;DHT22;4744;52.576;13.568;2023-07-31T09:57:48;17.30;1.00
9410;DHT22;4744;52.576;13.568;2023-07-31T10:00:16;17.20;1.00
9410;DHT22;4744;52.576;13.568;2023-07-31T10:02:46;17.10;1.00
9410;DHT22;4744;52.576;13.568;2023-07-31T10:05:14;17.10;1.00
9410;DHT22;4744;52.576;13.568;2023-07-31T10:07:43;17.10;1.00
9410;DHT22;4744;52.576;13.568;2023-07-31T10:10:13;17.20;1.00
9410;DHT22;4744;52.576;13.568;2023-07-31T10:12:41;17.20;1.00
9410;DHT22;4744;52.576;13.568;2023-07-31T10:15:10;17.20;1.00
9410;DHT22;4744;52.576;13.568;2023-07-31T10:17:38;17.30;1.00
9410;DHT22;4744;52.576;13.568;2023-07-31T10:20:07;17.30;1.00
9410;DHT22;4744;52.576;13.568;2023-07-31T10:22:34;17.40;1.00
9410;DHT22;4744;52.576;13.568;2023-07-31T10:25:01;17.50;1.00
9410;DHT22;4744;52.576;13.568;2023-07-31T10:27:29;17.60;1.00
9410;DHT22;4744;52.576;13.568;2023-07-31T10:29:57;17.60;1.00
9410;DHT22;4744;52.576;13.568;2023-07-31T10:32:26;17.60;1.00
9410;DHT22;4744;52.576;13.568;2023-07-31T10:34:54;17.60;1.00
9410;DHT22;4744;52.576;13.568;2023-07-31T10:37:25;17.60;1.00
9410;DHT22;4744;52.576;13.568;2023-07-31T10:40:00;17.50;1.00
9410;DHT22;4744;52.576;13.568;2023-07-31T10:42:31;17.50;1.00
9410;DHT22;4744;52.576;13.568;2023-07-31T10:45:00;17.60;1.00
9410;DHT22;4744;52.576;13.568;2023-07-31T10:47:29;17.60;1.00
9410;DHT22;4744;52.576;13.568;2023-07-31T10:50:17;17.70;1.00
9410;DHT22;4744;52.576;13.568;2023-07-31T10:52:49;17.70;1.00
9410;DHT22;4744;52.576;13.568;2023-07-31T10:55:30;17.70;1.00
9410;DHT22;4744;52.576;13.568;2023-07-31T10:58:05;17.70;1.00
9410;DHT22;4744;52.576;13.568;2023-07-31T11:00:32;17.70;1.00
9410;DHT22;4744;52.576;13.568;2023-07-31T11:03:02;17.70;1.00
9410;DHT22;4744;52.576;13.568;2023-07-31T11:05:47;17.90;1.00
9410;DHT22;4744;52.576;13.568;2023-07-31T11:08:17;18.00;1.00
9410;DHT22;4744;52.576;13.568;2023-07-31T11:10:45;18.20;1.00
9410;DHT22;4744;52.576;13.568;2023-07-31T11:13:13;18.40;1.00
9410;DHT22;4744;52.576;13.568;2023-07-31T11:15:40;18.60;1.00
9410;DHT22;4744;52.576;13.568;2023-07-31T11:18:09;18.70;1.00
9410;DHT22;4744;52.576;13.568;2023-07-31T11:20:37;18.90;1.00
9410;DHT22;4744;52.576;13.568;2023-07-31T11:23:07;19.00;1.00
9410;DHT22;4744;52.576;13.568;2023-07-31T11:25:35;19.00;1.00
9410;DHT22;4744;52.576;13.568;2023-07-31T11:28:04;19.00;1.00
9410;DHT22;4744;52.576;13.568;2023-07-31T11:30:31;19.00;1.00
9410;DHT22;4744;52.576;13.568;2023-07-31T11:33:00;19.00;1.00
9410;DHT22;4744;52.576;13.568;2023-07-31T11:35:30;19.10;1.00
9410;DHT22;4744;52.576;13.568;2023-07-31T11:37:58;19.30;1.00
9410;DHT22;4744;52.576;13.568;2023-07-31T11:40:25;19.40;1.00
9410;DHT22;4744;52.576;13.568;2023-07-31T11:42:56;19.60;1.00
9410;DHT22;4744;52.576;13.568;2023-07-31T11:45:25;19.70;1.00
9410;DHT22;4744;52.576;13.568;2023-07-31T11:47:54;19.70;1.00
9410;DHT22;4744;52.576;13.568;2023-07-31T11:50:22;19.70;1.00
9410;DHT22;4744;52.576;13.568;2023-07-31T11:52:55;19.70;1.00
9410;DHT22;4744;52.576;13.568;2023-07-31T11:55:23;19.70;1.00
9410;DHT22;4744;52.576;13.568;2023-07-31T11:57:51;19.60;1.00
9410;DHT22;4744;52.576;13.568;2023-07-31T12:00:19;19.60;1.00
9410;DHT22;4744;52.576;13.568;2023-07-31T12:02:47;19.60;1.00
9410;DHT22;4744;52.576;13.568;2023-07-31T12:05:14;19.60;1.00
9410;DHT22;4744;52.576;13.568;2023-07-31T12:07:46;19.70;1.00
9410;DHT22;4744;52.576;13.568;2023-07-31T12:10:24;19.70;1.00
9410;DHT22;4744;52.576;13.568;2023-07-31T12:13:03;19.80;1.00
9410;DHT22;4744;52.576;13.568;2023-07-31T12:15:33;19.80;1.00
9410;DHT22;4744;52.576;13.568;2023-07-31T12:18:03;19.80;1.00
9410;DHT22;4744;52.576;13.568;2023-07-31T12:20:30;19.80;1.00
9410;DHT22;4744;52.576;13.568;2023-07-31T12:22:58;19.80;1.00
9410;DHT22;4744;52.576;13.568;2023-07-31T12:25:30;19.80;1.00
9410;DHT22;4744;52.576;13.568;2023-07-31T12:27:58;19.90;1.00
9410;DHT22;4744;52.576;13.568;2023-07-31T12:30:28;19.90;1.00
9410;DHT22;4744;52.576;13.568;2023-07-31T12:32:55;19.90;1.00
9410;DHT22;4744;52.576;13.568;2023-07-31T12:35:23;19.90;1.00
9410;DHT22;4744;52.576;13.568;2023-07-31T12:37:50;19.90;1.00
9410;DHT22;4744;52.576;13.568;2023-07-31T12:40:16;20.00;1.00
9410;DHT22;4744;52.576;13.568;2023-07-31T12:42:45;20.00;1.00
9410;DHT22;4744;52.576;13.568;2023-07-31T12:45:12;20.00;1.00
9410;DHT22;4744;52.576;13.568;2023-07-31T12:47:39;20.00;1.00
9410;DHT22;4744;52.576;13.568;2023-07-31T12:50:07;19.90;1.00
9410;DHT22;4744;52.576;13.568;2023-07-31T12:52:34;19.90;1.00
9410;DHT22;4744;52.576;13.568;2023-07-31T12:55:01;20.00;1.00
9410;DHT22;4744;52.576;13.568;2023-07-31T12:57:28;20.10;1.00
9410;DHT22;4744;52.576;13.568;2023-07-31T12:59:56;20.20;1.00
9410;DHT22;4744;52.576;13.568;2023-07-31T13:02:23;20.30;1.00
9410;DHT22;4744;52.576;13.568;2023-07-31T13:04:50;20.40;1.00
9410;DHT22;4744;52.576;13.568;2023-07-31T13:07:17;20.40;1.00
9410;DHT22;4744;52.576;13.568;2023-07-31T13:09:44;20.40;1.00
9410;DHT22;4744;52.576;13.568;2023-07-31T13:12:11;20.40;1.00
9410;DHT22;4744;52.576;13.568;2023-07-31T13:14:37;20.30;1.00
9410;DHT22;4744;52.576;13.568;2023-07-31T13:17:06;20.30;1.00
9410;DHT22;4744;52.576;13.568;2023-07-31T13:19:32;20.30;1.00
9410;DHT22;4744;52.576;13.568;2023-07-31T13:21:59;20.20;1.00
9410;DHT22;4744;52.576;13.568;2023-07-31T13:24:26;20.10;1.00
9410;DHT22;4744;52.576;13.568;2023-07-31T13:26:53;20.10;1.00
9410;DHT22;4744;52.576;13.568;2023-07-31T13:29:20;20.00;1.00
9410;DHT22;4744;52.576;13.568;2023-07-31T13:31:47;19.90;1.00
9410;DHT22;4744;52.576;13.568;2023-07-31T13:34:15;19.80;1.00
9410;DHT22;4744;52.576;13.568;2023-07-31T13:36:42;19.70;1.00
9410;DHT22;4744;52.576;13.568;2023-07-31T13:39:09;19.70;1.00
9410;DHT22;4744;52.576;13.568;2023-07-31T13:41:36;19.80;1.00
9410;DHT22;4744;52.576;13.568;2023-07-31T13:44:03;19.90;1.00
9410;DHT22;4744;52.576;13.568;2023-07-31T13:46:30;20.00;1.00
9410;DHT22;4744;52.576;13.568;2023-07-31T13:48:58;20.10;1.00
9410;DHT22;4744;52.576;13.568;2023-07-31T13:51:26;20.20;1.00
9410;DHT22;4744;52.576;13.568;2023-07-31T13:53:54;20.30;1.00
9410;DHT22;4744;52.576;13.568;2023-07-31T13:56:21;20.30;1.00
9410;DHT22;4744;52.576;13.568;2023-07-31T13:58:48;20.40;1.00
9410;DHT22;4744;52.576;13.568;2023-07-31T14:01:15;20.50;1.00
9410;DHT22;4744;52.576;13.568;2023-07-31T14:03:42;20.70;1.00
9410;DHT22;4744;52.576;13.568;2023-07-31T14:06:08;20.70;1.00
9410;DHT22;4744;52.576;13.568;2023-07-31T14:08:37;20.80;1.00
9410;DHT22;4744;52.576;13.568;2023-07-31T14:11:04;20.80;1.00
9410;DHT22;4744;52.576;13.568;2023-07-31T14:13:30;20.90;1.00
9410;DHT22;4744;52.576;13.568;2023-07-31T14:15:57;20.90;1.00
9410;DHT22;4744;52.576;13.568;2023-07-31T14:18:24;20.90;1.00
9410;DHT22;4744;52.576;13.568;2023-07-31T14:20:51;20.90;1.00
9410;DHT22;4744;52.576;13.568;2023-07-31T14:23:18;21.00;1.00
9410;DHT22;4744;52.576;13.568;2023-07-31T14:25:47;21.00;1.00
9410;DHT22;4744;52.576;13.568;2023-07-31T14:28:14;21.00;1.00
9410;DHT22;4744;52.576;13.568;2023-07-31T14:30:41;20.90;1.00
9410;DHT22;4744;52.576;13.568;2023-07-31T14:33:08;20.90;1.00
9410;DHT22;4744;52.576;13.568;2023-07-31T14:35:35;20.80;1.00
9410;DHT22;4744;52.576;13.568;2023-07-31T14:38:02;20.70;1.00
9410;DHT22;4744;52.576;13.568;2023-07-31T14:40:29;20.70;1.00
9410;DHT22;4744;52.576;13.568;2023-07-31T14:42:57;20.70;1.00
9410;DHT22;4744;52.576;13.568;2023-07-31T14:45:24;20.70;1.00
9410;DHT22;4744;52.576;13.568;2023-07-31T14:47:51;20.70;1.00
9410;DHT22;4744;52.576;13.568;2023-07-31T14:50:20;20.70;1.00
9410;DHT22;4744;52.576;13.568;2023-07-31T14:52:47;20.70;1.00
9410;DHT22;4744;52.576;13.568;2023-07-31T14:55:14;20.80;1.00
9410;DHT22;4744;52.576;13.568;2023-07-31T14:57:41;20.80;1.00
9410;DHT22;4744;52.576;13.568;2023-07-31T15:00:10;20.90;1.00
9410;DHT22;4744;52.576;13.568;2023-07-31T15:02:37;20.80;1.00
9410;DHT22;4744;52.576;13.568;2023-07-31T15:05:05;20.80;1.00
9410;DHT22;4744;52.576;13.568;2023-07-31T15:07:32;20.80;1.00
9410;DHT22;4744;52.576;13.568;2023-07-31T15:09:59;20.70;1.00
9410;DHT22;4744;52.576;13.568;2023-07-31T15:12:26;20.70;1.00
9410;DHT22;4744;52.576;13.568;2023-07-31T15:14:54;20.80;1.00
9410;DHT22;4744;52.576;13.568;2023-07-31T15:17:22;20.70;1.00
9410;DHT22;4744;52.576;13.568;2023-07-31T15:19:49;20.70;1.00
9410;DHT22;4744;52.576;13.568;2023-07-31T15:22:16;20.70;1.00
9410;DHT22;4744;52.576;13.568;2023-07-31T15:24:43;20.80;1.00
9410;DHT22;4744;52.576;13.568;2023-07-31T15:27:10;20.70;1.00
9410;DHT22;4744;52.576;13.568;2023-07-31T15:29:37;20.80;1.00
9410;DHT22;4744;52.576;13.568;2023-07-31T15:32:04;20.70;1.00
9410;DHT22;4744;52.576;13.568;2023-07-31T15:34:33;20.70;1.00
9410;DHT22;4744;52.576;13.568;2023-07-31T15:37:00;20.70;1.00
9410;DHT22;4744;52.576;13.568;2023-07-31T15:39:27;20.80;1.00
9410;DHT22;4744;52.576;13.568;2023-07-31T15:41:53;21.00;1.00
9410;DHT22;4744;52.576;13.568;2023-07-31T15:44:20;21.00;1.00
9410;DHT22;4744;52.576;13.568;2023-07-31T15:46:48;21.20;1.00
9410;DHT22;4744;52.576;13.568;2023-07-31T15:49:15;21.10;1.00
9410;DHT22;4744;52.576;13.568;2023-07-31T15:51:43;21.10;1.00
9410;DHT22;4744;52.576;13.568;2023-07-31T15:54:10;21.00;1.00
9410;DHT22;4744;52.576;13.568;2023-07-31T15:56:38;20.90;1.00
9410;DHT22;4744;52.576;13.568;2023-07-31T15:59:05;20.80;1.00
9410;DHT22;4744;52.576;13.568;2023-07-31T16:01:32;20.80;1.00
9410;DHT22;4744;52.576;13.568;2023-07-31T16:03:59;20.70;1.00
9410;DHT22;4744;52.576;13.568;2023-07-31T16:06:26;20.70;1.00